Time;durP1;ratioP1;P1;durP2;ratioP2;P2;SDS_P1;SDS_P2;PMS_P1;PMS_P2;Temp;Humidity;BMP_temperature;BMP_pressure;BME280_temperature;BME280_humidity;BME280_pressure;Samples;Min_cycle;Max_cycle;Signal;HPM_P1;HPM_P2
2022/03/12 04:02:05;;;;;;;1.75;1.30;;;17.10;44.70;;;;;;5193870;23;45817;-61
2022/03/12 04:04:33;;;;;;;1.58;1.27;;;17.10;44.70;;;;;;5029518;28;45373;-62
2022/03/12 04:06:59;;;;;;;1.65;1.33;;;17.00;44.60;;;;;;4976447;28;45123;-59
2022/03/12 04:09:25;;;;;;;1.40;1.30;;;17.00;44.60;;;;;;5000095;28;44821;-59
2022/03/12 04:11:51;;;;;;;2.10;1.52;;;17.10;44.70;;;;;;5013277;28;45259;-60
2022/03/12 04:14:16;;;;;;;1.85;1.40;;;17.10;44.60;;;;;;5008545;28;45145;-59
2022/03/12 04:16:45;;;;;;;2.22;1.15;;;17.10;44.60;;;;;;5010341;28;45393;-60
2022/03/12 04:19:11;;;;;;;1.98;1.27;;;17.10;44.50;;;;;;4994254;28;45251;-62
2022/03/12 04:21:37;;;;;;;1.70;1.30;;;17.00;44.50;;;;;;4995569;28;46029;-61
2022/03/12 04:24:02;;;;;;;1.55;1.20;;;17.00;44.70;;;;;;5001354;28;45282;-61
2022/03/12 04:26:30;;;;;;;2.17;1.65;;;17.00;44.70;;;;;;5009312;28;44866;-61
2022/03/12 04:28:58;;;;;;;1.42;1.30;;;17.00;44.80;;;;;;5003254;28;45377;-59
2022/03/12 04:31:23;;;;;;;2.15;1.38;;;17.00;44.80;;;;;;5003922;28;46594;-62
2022/03/12 04:33:49;;;;;;;1.73;1.30;;;16.90;44.80;;;;;;4994040;28;45265;-60
2022/03/12 04:36:14;;;;;;;2.20;1.40;;;16.90;44.80;;;;;;5012683;28;45043;-59
2022/03/12 04:38:40;;;;;;;1.77;1.23;;;16.90;44.90;;;;;;5007521;28;45349;-61
2022/03/12 04:41:06;;;;;;;1.90;1.60;;;16.90;44.90;;;;;;5007386;28;45481;-58
2022/03/12 04:43:32;;;;;;;1.70;1.40;;;16.90;44.90;;;;;;5006331;28;45286;-60
2022/03/12 04:45:59;;;;;;;1.42;1.33;;;16.90;44.90;;;;;;5004343;28;44942;-59
2022/03/12 04:48:24;;;;;;;1.63;1.40;;;16.80;44.90;;;;;;5000322;28;45290;-61
2022/03/12 04:50:51;;;;;;;2.03;1.30;;;16.80;44.90;;;;;;4999325;28;46219;-58
2022/03/12 04:53:16;;;;;;;1.10;1.00;;;16.90;44.90;;;;;;4995990;28;45050;-62
2022/03/12 04:55:44;;;;;;;2.17;1.40;;;16.90;44.80;;;;;;4990945;28;45486;-57
2022/03/12 04:58:12;;;;;;;1.50;1.40;;;16.90;44.80;;;;;;5008704;28;44812;-61
2022/03/12 05:00:38;;;;;;;1.83;1.27;;;16.80;44.70;;;;;;4993527;28;46623;-59
2022/03/12 05:03:09;;;;;;;2.05;1.48;;;16.90;44.70;;;;;;5017374;28;45266;-59
2022/03/12 05:05:39;;;;;;;1.55;1.17;;;16.90;44.80;;;;;;5009845;28;45726;-61
2022/03/12 05:08:05;;;;;;;1.52;1.40;;;16.80;44.80;;;;;;5005961;28;45365;-61
2022/03/12 05:10:31;;;;;;;1.48;1.30;;;16.80;44.90;;;;;;5010369;28;46227;-61
2022/03/12 05:13:00;;;;;;;1.15;1.05;;;16.80;44.90;;;;;;5003296;28;45223;-59
2022/03/12 05:15:32;;;;;;;1.65;1.30;;;16.80;44.90;;;;;;5000430;28;44721;-62
2022/03/12 05:17:58;;;;;;;1.60;1.30;;;16.80;44.90;;;;;;4996625;28;45223;-57
2022/03/12 05:20:25;;;;;;;1.83;1.40;;;16.80;44.80;;;;;;5005176;28;46449;-61
2022/03/12 05:22:51;;;;;;;1.58;1.30;;;16.80;44.80;;;;;;5003798;28;45336;-58
2022/03/12 05:25:18;;;;;;;1.95;1.33;;;16.80;44.80;;;;;;5007355;28;45363;-63
2022/03/12 05:27:48;;;;;;;1.88;1.40;;;16.80;44.90;;;;;;5006299;28;46279;-61
2022/03/12 05:30:14;;;;;;;1.80;1.50;;;16.70;44.90;;;;;;4999946;28;45235;-58
2022/03/12 05:32:39;;;;;;;2.15;1.40;;;16.70;44.90;;;;;;5009522;28;44802;-61
2022/03/12 05:35:06;;;;;;;1.45;1.35;;;16.70;44.90;;;;;;5010877;28;45309;-61
2022/03/12 05:37:32;;;;;;;2.35;1.50;;;16.70;45.00;;;;;;5006829;28;45552;-59
2022/03/12 05:39:58;;;;;;;1.70;1.25;;;16.70;45.00;;;;;;5002850;28;45350;-61
2022/03/12 05:42:23;;;;;;;1.92;1.40;;;16.70;45.00;;;;;;4990926;28;45142;-60
2022/03/12 05:44:50;;;;;;;1.95;1.38;;;16.70;45.00;;;;;;5002126;28;45662;-58
2022/03/12 05:47:17;;;;;;;1.33;1.23;;;16.70;45.00;;;;;;5008134;28;45221;-61
2022/03/12 05:49:43;;;;;;;1.52;1.33;;;16.70;45.00;;;;;;5006687;28;46089;-59
2022/03/12 05:52:09;;;;;;;1.65;1.42;;;16.70;45.00;;;;;;5006940;28;45022;-62
2022/03/12 05:54:35;;;;;;;1.88;1.38;;;16.70;45.00;;;;;;5010738;28;45706;-61
2022/03/12 05:57:01;;;;;;;1.13;1.02;;;16.70;44.90;;;;;;5007156;28;45663;-62
2022/03/12 05:59:26;;;;;;;2.30;1.23;;;16.70;44.90;;;;;;5009882;28;45367;-59
2022/03/12 06:01:52;;;;;;;1.23;1.13;;;16.70;44.90;;;;;;5001254;28;45493;-60
2022/03/12 06:04:25;;;;;;;1.63;1.30;;;16.60;44.90;;;;;;5004288;28;45067;-63
2022/03/12 06:06:52;;;;;;;1.52;1.20;;;16.60;45.00;;;;;;5000223;28;45141;-63
2022/03/12 06:09:18;;;;;;;1.55;1.40;;;16.60;45.10;;;;;;5005017;28;45597;-61
2022/03/12 06:11:44;;;;;;;1.73;1.05;;;16.60;45.20;;;;;;5001501;28;45618;-61
2022/03/12 06:14:15;;;;;;;2.55;1.50;;;16.60;45.10;;;;;;5003064;28;45510;-62
2022/03/12 06:16:47;;;;;;;2.10;1.40;;;16.60;45.10;;;;;;5006317;28;45476;-61
2022/03/12 06:19:15;;;;;;;1.30;1.13;;;16.60;45.00;;;;;;4999630;28;45893;-60
2022/03/12 06:21:41;;;;;;;1.50;1.30;;;16.60;45.10;;;;;;5002862;28;45616;-61
2022/03/12 06:24:07;;;;;;;1.60;1.40;;;16.60;45.00;;;;;;5001795;28;45522;-61
2022/03/12 06:26:35;;;;;;;1.45;1.20;;;16.60;45.10;;;;;;5002141;28;45295;-60
2022/03/12 06:29:02;;;;;;;1.80;1.45;;;16.60;45.10;;;;;;5005903;28;46390;-59
2022/03/12 06:31:27;;;;;;;1.88;1.42;;;16.60;45.00;;;;;;5003006;28;45491;-60
2022/03/12 06:33:54;;;;;;;1.70;1.40;;;16.60;44.90;;;;;;5003946;28;45454;-60
2022/03/12 06:36:22;;;;;;;1.80;1.20;;;16.60;44.90;;;;;;5006644;28;45971;-62
2022/03/12 06:38:48;;;;;;;1.40;1.25;;;16.70;44.80;;;;;;5006658;28;46426;-60
2022/03/12 06:41:13;;;;;;;1.48;1.20;;;16.70;44.80;;;;;;4994789;28;45407;-61
2022/03/12 06:43:42;;;;;;;1.50;1.40;;;16.70;44.80;;;;;;5004646;28;45029;-60
2022/03/12 06:46:13;;;;;;;1.45;1.25;;;16.60;44.70;;;;;;5004185;28;45140;-61
2022/03/12 06:48:39;;;;;;;1.55;1.30;;;16.60;44.70;;;;;;5003484;28;47415;-61
2022/03/12 06:51:05;;;;;;;1.50;1.20;;;16.60;44.70;;;;;;5005087;28;45564;-62
2022/03/12 06:53:31;;;;;;;2.00;1.50;;;16.60;44.60;;;;;;5009795;28;45808;-59
2022/03/12 06:55:58;;;;;;;1.65;1.35;;;16.60;44.60;;;;;;5006687;28;45744;-61
2022/03/12 06:58:26;;;;;;;1.70;1.30;;;16.60;44.70;;;;;;5010918;28;45150;-61
2022/03/12 07:00:52;;;;;;;2.05;1.50;;;16.70;44.70;;;;;;5008050;28;45654;-62
2022/03/12 07:03:17;;;;;;;1.60;1.40;;;16.70;44.60;;;;;;5009381;28;44934;-59
2022/03/12 07:05:43;;;;;;;1.33;1.02;;;16.70;44.60;;;;;;5008089;28;45327;-62
2022/03/12 07:08:08;;;;;;;1.67;1.40;;;16.60;44.60;;;;;;5005019;28;47129;-61
2022/03/12 07:10:35;;;;;;;1.70;1.40;;;16.60;44.60;;;;;;5007311;28;45357;-60
2022/03/12 07:13:00;;;;;;;2.05;1.30;;;16.60;44.60;;;;;;5005645;28;45241;-60
2022/03/12 07:15:26;;;;;;;1.38;1.25;;;16.60;44.60;;;;;;5008637;28;45565;-61
2022/03/12 07:17:52;;;;;;;1.85;1.42;;;16.70;44.60;;;;;;5009161;28;48000;-57
2022/03/12 07:20:18;;;;;;;1.30;1.20;;;16.60;44.50;;;;;;5008635;28;45340;-59
2022/03/12 07:22:45;;;;;;;1.63;1.05;;;16.60;44.50;;;;;;5011606;28;44736;-60
2022/03/12 07:25:12;;;;;;;2.03;1.35;;;16.60;44.50;;;;;;4995418;28;45229;-58
2022/03/12 07:27:38;;;;;;;1.58;1.33;;;16.60;44.60;;;;;;5013041;28;46216;-61
2022/03/12 07:30:04;;;;;;;1.58;1.23;;;16.60;44.60;;;;;;5012147;28;45344;-60
2022/03/12 07:32:30;;;;;;;1.95;1.30;;;16.60;44.70;;;;;;5011599;28;45312;-59
2022/03/12 07:34:56;;;;;;;1.65;1.55;;;16.50;44.70;;;;;;5009333;28;45249;-60
2022/03/12 07:37:21;;;;;;;1.42;1.27;;;16.50;44.80;;;;;;5005480;28;46211;-62
2022/03/12 07:39:47;;;;;;;1.70;1.30;;;16.50;44.70;;;;;;5008619;28;45171;-60
2022/03/12 07:42:13;;;;;;;1.67;1.50;;;16.50;44.70;;;;;;5009247;28;45407;-60
2022/03/12 07:44:39;;;;;;;1.30;1.17;;;16.50;44.70;;;;;;5007755;28;44706;-60
2022/03/12 07:47:05;;;;;;;1.40;1.25;;;16.50;44.70;;;;;;5008255;28;46148;-61
2022/03/12 07:49:31;;;;;;;2.17;1.40;;;16.60;44.60;;;;;;5007776;28;45344;-60
2022/03/12 07:51:56;;;;;;;1.73;1.40;;;16.60;44.60;;;;;;5008364;28;45700;-62
2022/03/12 07:54:23;;;;;;;1.73;1.20;;;16.60;44.60;;;;;;5007554;28;45262;-58
2022/03/12 07:56:49;;;;;;;1.30;1.05;;;16.60;44.60;;;;;;5009823;28;46365;-59
2022/03/12 07:59:14;;;;;;;2.00;1.40;;;16.60;44.70;;;;;;5009775;28;44819;-59
2022/03/12 08:01:40;;;;;;;1.42;1.33;;;16.60;44.60;;;;;;5008495;28;45334;-57
2022/03/12 08:04:06;;;;;;;1.60;1.33;;;16.60;44.60;;;;;;5010631;28;45083;-58
2022/03/12 08:06:33;;;;;;;1.92;1.50;;;16.60;44.60;;;;;;5011865;28;45939;-60
2022/03/12 08:08:59;;;;;;;1.65;1.25;;;16.60;44.70;;;;;;5007207;28;45854;-61
2022/03/12 08:11:25;;;;;;;2.20;1.38;;;16.50;44.70;;;;;;5008282;28;45397;-61
2022/03/12 08:14:00;;;;;;;1.73;1.40;;;16.50;44.80;;;;;;5009745;28;45302;-61
2022/03/12 08:16:26;;;;;;;1.67;1.10;;;16.50;44.70;;;;;;5007707;28;46045;-61
2022/03/12 08:18:51;;;;;;;1.50;1.30;;;16.50;45.30;;;;;;5008674;28;45313;-62
2022/03/12 08:21:20;;;;;;;1.33;1.17;;;16.50;44.70;;;;;;5023822;28;45362;-59
2022/03/12 08:23:46;;;;;;;1.95;1.58;;;16.50;44.80;;;;;;5004967;28;45486;-61
2022/03/12 08:26:12;;;;;;;1.52;1.40;;;16.50;44.70;;;;;;5023590;28;47153;-59
2022/03/12 08:28:38;;;;;;;1.10;0.90;;;16.50;44.70;;;;;;5006996;28;46019;-57
2022/03/12 08:31:04;;;;;;;1.98;1.25;;;16.50;44.80;;;;;;5009493;28;45352;-59
2022/03/12 08:33:29;;;;;;;1.67;1.20;;;16.50;44.80;;;;;;5006461;28;45604;-60
2022/03/12 08:35:56;;;;;;;1.75;1.23;;;16.50;44.80;;;;;;5011454;28;47201;-61
2022/03/12 08:38:22;;;;;;;1.45;1.20;;;16.50;45.40;;;;;;5010057;28;45728;-59
2022/03/12 08:40:48;;;;;;;1.70;1.60;;;16.60;44.80;;;;;;5009075;28;44994;-59
2022/03/12 08:43:14;;;;;;;1.40;1.10;;;16.60;45.30;;;;;;5009987;28;45284;-62
2022/03/12 08:45:39;;;;;;;1.55;1.30;;;16.60;44.70;;;;;;5010035;28;46171;-59
2022/03/12 08:48:05;;;;;;;1.58;1.20;;;16.70;44.60;;;;;;5008055;28;45542;-61
2022/03/12 08:50:32;;;;;;;1.50;1.23;;;16.70;44.40;;;;;;4994603;28;45301;-62
2022/03/12 08:52:58;;;;;;;1.73;1.35;;;16.70;44.30;;;;;;5011459;28;45688;-61
2022/03/12 08:55:24;;;;;;;2.42;1.52;;;16.80;44.30;;;;;;5007455;28;45404;-56
2022/03/12 08:57:51;;;;;;;1.33;1.10;;;16.70;44.20;;;;;;5012011;28;45251;-58
2022/03/12 09:00:17;;;;;;;1.70;1.38;;;16.80;44.30;;;;;;4991596;28;45808;-60
2022/03/12 09:02:44;;;;;;;1.42;1.33;;;16.80;44.30;;;;;;5009631;28;45498;-61
2022/03/12 09:05:12;;;;;;;1.25;1.10;;;16.70;44.40;;;;;;5011507;28;45516;-61
2022/03/12 09:07:37;;;;;;;1.65;1.33;;;16.70;44.40;;;;;;5010606;28;45041;-60
2022/03/12 09:10:05;;;;;;;1.60;1.20;;;16.70;44.40;;;;;;5006208;28;45551;-60
2022/03/12 09:12:31;;;;;;;2.20;1.48;;;16.70;44.60;;;;;;5007700;28;45281;-61
2022/03/12 09:14:56;;;;;;;1.60;1.20;;;16.70;44.50;;;;;;4993726;28;46311;-61
2022/03/12 09:17:22;;;;;;;1.58;1.48;;;16.70;44.60;;;;;;5007548;28;45246;-59
2022/03/12 09:19:47;;;;;;;1.92;1.20;;;16.70;44.70;;;;;;5010706;28;45241;-58
2022/03/12 09:22:13;;;;;;;1.38;1.10;;;16.70;44.60;;;;;;5013368;28;45574;-58
2022/03/12 09:24:40;;;;;;;1.48;1.35;;;16.60;44.60;;;;;;5024934;28;46104;-55
2022/03/12 09:27:06;;;;;;;1.20;1.10;;;16.60;44.70;;;;;;5009231;28;45234;-59
2022/03/12 09:29:35;;;;;;;1.70;1.20;;;16.70;44.70;;;;;;5012472;28;45404;-56
2022/03/12 09:32:03;;;;;;;1.42;0.88;;;16.60;44.60;;;;;;5011462;28;45673;-57
2022/03/12 09:34:29;;;;;;;1.70;1.17;;;16.60;44.60;;;;;;5015120;28;47123;-59
2022/03/12 09:36:54;;;;;;;1.50;1.40;;;16.60;44.60;;;;;;5005749;28;45229;-61
2022/03/12 09:39:20;;;;;;;1.30;1.13;;;16.60;45.20;;;;;;5012989;28;45459;-63
2022/03/12 09:41:47;;;;;;;1.30;1.20;;;16.70;44.70;;;;;;5030114;28;45170;-57
2022/03/12 09:44:12;;;;;;;1.48;1.20;;;16.60;44.60;;;;;;5010540;28;46137;-56
2022/03/12 09:46:38;;;;;;;1.60;1.30;;;16.60;44.70;;;;;;5012626;28;45226;-59
2022/03/12 09:49:04;;;;;;;1.58;1.17;;;16.60;44.70;;;;;;5004107;28;44621;-58
2022/03/12 09:51:31;;;;;;;1.27;0.98;;;16.60;44.70;;;;;;5006168;28;44678;-61
2022/03/12 09:53:58;;;;;;;1.60;1.30;;;16.60;44.70;;;;;;5004887;28;45076;-59
2022/03/12 09:56:24;;;;;;;1.88;1.55;;;16.70;45.30;;;;;;5003878;28;45417;-59
2022/03/12 09:58:49;;;;;;;1.85;1.40;;;16.60;44.70;;;;;;5008319;28;44712;-62
2022/03/12 10:01:15;;;;;;;1.95;1.52;;;16.60;44.70;;;;;;5005558;28;45649;-61
2022/03/12 10:03:42;;;;;;;1.42;1.33;;;16.70;44.70;;;;;;5009995;28;46036;-56
2022/03/12 10:06:08;;;;;;;1.40;1.08;;;16.70;44.70;;;;;;5010280;28;45185;-62
2022/03/12 10:08:33;;;;;;;1.88;1.23;;;16.60;44.70;;;;;;5005399;28;45071;-58
2022/03/12 10:10:59;;;;;;;1.40;1.20;;;16.60;44.80;;;;;;5007987;28;45019;-60
2022/03/12 10:13:25;;;;;;;1.67;1.38;;;16.70;44.80;;;;;;5012412;28;45544;-58
2022/03/12 10:15:51;;;;;;;1.88;1.40;;;16.60;44.70;;;;;;5007825;28;45239;-60
2022/03/12 10:18:17;;;;;;;1.92;1.50;;;16.70;44.70;;;;;;5009065;28;45241;-60
2022/03/12 10:20:43;;;;;;;2.03;1.20;;;16.70;44.80;;;;;;5010343;28;45487;-61
2022/03/12 10:23:10;;;;;;;1.48;1.25;;;16.70;44.70;;;;;;5007888;28;47502;-61
2022/03/12 10:25:36;;;;;;;1.48;1.08;;;16.70;44.70;;;;;;5005606;28;45457;-59
2022/03/12 10:28:02;;;;;;;4.22;1.15;;;16.70;44.70;;;;;;5011022;28;45583;-57
2022/03/12 10:30:28;;;;;;;4.03;1.40;;;16.80;44.30;;;;;;5008401;28;45067;-58
2022/03/12 10:32:54;;;;;;;5.35;1.30;;;16.80;43.80;;;;;;5026736;28;46979;-60
2022/03/12 10:35:20;;;;;;;6.05;1.70;;;17.00;43.40;;;;;;5011805;28;45293;-60
2022/03/12 10:37:47;;;;;;;3.40;1.70;;;16.90;43.40;;;;;;5004195;28;45887;-58
2022/03/12 10:40:19;;;;;;;2.47;1.50;;;16.80;43.50;;;;;;5005999;28;45516;-59
2022/03/12 10:43:05;;;;;;;6.00;1.50;;;16.80;43.60;;;;;;5009833;28;45734;-59
2022/03/12 10:45:38;;;;;;;6.43;1.52;;;16.90;43.50;;;;;;4994614;28;45461;-59
2022/03/12 10:48:03;;;;;;;6.93;1.58;;;16.90;43.40;;;;;;5009651;28;45503;-60
2022/03/12 10:50:49;;;;;;;1.75;1.35;;;17.00;43.30;;;;;;5014291;28;45769;-59
2022/03/12 10:53:15;;;;;;;2.90;1.40;;;17.00;43.20;;;;;;5010457;28;45385;-59
2022/03/12 10:55:49;;;;;;;2.45;1.30;;;17.00;43.20;;;;;;5006802;28;46128;-59
2022/03/12 10:58:25;;;;;;;2.35;1.40;;;17.00;43.30;;;;;;5003235;28;45275;-58
2022/03/12 11:00:52;;;;;;;5.25;1.35;;;17.00;43.30;;;;;;4999676;28;44916;-60
2022/03/12 11:03:22;;;;;;;2.00;1.35;;;16.90;43.40;;;;;;5021620;28;46406;-58
2022/03/12 11:05:49;;;;;;;3.65;1.38;;;16.90;43.60;;;;;;5014923;28;45131;-59
2022/03/12 11:08:17;;;;;;;2.45;1.48;;;16.90;43.60;;;;;;5019138;28;45243;-60
2022/03/12 11:10:50;;;;;;;3.42;1.40;;;16.90;43.60;;;;;;5015262;28;45280;-60
2022/03/12 11:13:39;;;;;;;1.42;1.23;;;16.90;43.50;;;;;;5012055;28;48535;-62
2022/03/12 11:16:28;;;;;;;4.57;1.58;;;16.90;43.60;;;;;;5017823;28;45247;-57
2022/03/12 11:18:54;;;;;;;1.40;1.15;;;16.80;43.70;;;;;;5016875;28;45232;-59
2022/03/12 11:21:37;;;;;;;5.63;1.25;;;16.80;43.80;;;;;;5009814;28;45402;-56
2022/03/12 11:24:06;;;;;;;4.05;1.20;;;16.80;43.90;;;;;;5011158;28;46294;-58
2022/03/12 11:26:53;;;;;;;1.30;1.10;;;16.80;43.90;;;;;;5011167;28;44994;-59
2022/03/12 11:29:21;;;;;;;2.78;1.00;;;16.80;43.90;;;;;;5009795;28;44711;-58
2022/03/12 11:31:48;;;;;;;3.50;1.00;;;16.80;44.00;;;;;;5004735;28;45013;-57
2022/03/12 11:34:22;;;;;;;6.90;1.55;;;16.70;44.00;;;;;;5007873;28;46408;-57
2022/03/12 11:37:04;;;;;;;5.70;1.20;;;16.80;44.10;;;;;;5019852;28;45280;-59
2022/03/12 11:39:41;;;;;;;3.38;0.95;;;16.70;44.10;;;;;;5003432;28;45237;-60
2022/03/12 11:42:14;;;;;;;6.90;1.30;;;16.80;44.20;;;;;;5020642;28;44997;-59
2022/03/12 11:44:41;;;;;;;2.33;1.17;;;16.70;44.10;;;;;;5019450;28;45575;-59
2022/03/12 11:47:07;;;;;;;6.18;1.60;;;16.80;44.20;;;;;;5022036;28;45176;-58
2022/03/12 11:49:33;;;;;;;2.67;1.02;;;16.70;44.80;;;;;;5012129;28;45166;-58
2022/03/12 11:52:00;;;;;;;2.58;1.25;;;16.80;44.20;;;;;;4987327;28;45280;-60
2022/03/12 11:54:26;;;;;;;4.68;1.27;;;16.70;44.20;;;;;;5011810;28;46017;-60
2022/03/12 11:56:52;;;;;;;3.10;1.20;;;16.70;44.20;;;;;;5017402;28;45209;-60
2022/03/12 11:59:18;;;;;;;8.18;1.23;;;16.80;44.20;;;;;;5012197;28;45230;-60
2022/03/12 12:01:44;;;;;;;4.90;1.40;;;16.80;44.30;;;;;;5025570;28;45453;-60
2022/03/12 12:04:10;;;;;;;3.78;1.30;;;16.80;44.20;;;;;;5013969;28;46094;-59
2022/03/12 12:06:36;;;;;;;3.38;1.25;;;16.80;44.20;;;;;;5008924;28;45107;-61
2022/03/12 12:09:02;;;;;;;6.78;1.38;;;16.70;44.20;;;;;;5017096;28;45377;-58
2022/03/12 12:11:34;;;;;;;3.83;1.40;;;16.80;44.30;;;;;;5013289;28;45135;-59
2022/03/12 12:14:01;;;;;;;2.17;1.10;;;16.80;44.30;;;;;;5009827;28;45422;-60
2022/03/12 12:16:29;;;;;;;2.42;1.25;;;16.80;44.30;;;;;;5008463;28;44764;-60
2022/03/12 12:18:54;;;;;;;5.75;1.50;;;16.80;44.40;;;;;;5012215;28;44660;-60
2022/03/12 12:21:20;;;;;;;4.25;1.50;;;16.80;44.40;;;;;;5029086;28;45232;-59
2022/03/12 12:23:48;;;;;;;5.68;1.20;;;16.70;44.30;;;;;;5012384;28;46151;-60
2022/03/12 12:26:14;;;;;;;7.07;1.35;;;16.80;44.30;;;;;;5007111;28;45574;-58
2022/03/12 12:28:48;;;;;;;3.80;1.30;;;16.80;44.60;;;;;;5007146;28;45806;-59
2022/03/12 12:31:24;;;;;;;8.32;1.50;;;16.80;44.20;;;;;;5004626;28;46007;-59
2022/03/12 12:33:50;;;;;;;3.33;1.45;;;16.80;44.20;;;;;;5006571;28;45376;-60
2022/03/12 12:36:17;;;;;;;2.53;1.05;;;16.80;44.20;;;;;;5005461;28;45482;-59
2022/03/12 12:39:12;;;;;;;3.60;1.80;;;16.80;44.20;;;;;;5012043;28;45071;-59
2022/03/12 12:41:51;;;;;;;5.32;2.40;;;16.90;41.70;;;;;;5014073;28;45927;-59
2022/03/12 12:44:17;;;;;;;4.63;2.50;;;16.90;37.80;;;;;;5007459;28;46293;-58
2022/03/12 12:46:42;;;;;;;7.15;3.88;;;16.70;35.60;;;;;;4994950;28;45386;-59
2022/03/12 12:49:08;;;;;;;9.95;4.40;;;16.60;33.70;;;;;;4989268;28;45519;-60
2022/03/12 12:51:48;;;;;;;6.97;4.82;;;16.60;33.00;;;;;;5008281;28;45446;-57
2022/03/12 12:54:13;;;;;;;;;;;16.60;31.40;;;;;;4987124;28;45749;-64
2022/03/12 12:56:41;;;;;;;6.07;3.92;;;16.60;28.10;;;;;;4989535;28;44775;-60
2022/03/12 12:59:11;;;;;;;5.68;3.67;;;16.70;31.70;;;;;;5008833;28;45335;-60
2022/03/12 13:01:39;;;;;;;8.38;3.33;;;16.70;31.10;;;;;;5003494;28;45234;-60
2022/03/12 13:04:06;;;;;;;6.68;3.42;;;16.60;31.60;;;;;;4999722;28;45041;-61
2022/03/12 13:06:44;;;;;;;5.03;3.55;;;16.50;32.30;;;;;;4994290;28;45131;-63
2022/03/12 13:09:11;;;;;;;6.55;3.30;;;16.50;30.80;;;;;;5012961;28;45278;-62
2022/03/12 13:11:40;;;;;;;5.25;3.15;;;16.50;31.60;;;;;;5007550;28;45606;-62
2022/03/12 13:14:16;;;;;;;5.43;3.38;;;16.50;31.90;;;;;;4998969;28;45642;-61
2022/03/12 13:16:53;;;;;;;5.07;3.45;;;16.50;30.50;;;;;;5004469;28;45489;-61
2022/03/12 13:19:28;;;;;;;9.23;3.45;;;16.40;30.90;;;;;;4998238;28;45225;-61
2022/03/12 13:22:04;;;;;;;6.05;3.78;;;16.40;30.40;;;;;;5003285;28;45377;-59
2022/03/12 13:24:31;;;;;;;6.28;3.75;;;16.40;30.80;;;;;;5011018;28;46194;-57
2022/03/12 13:27:00;;;;;;;4.95;3.55;;;16.40;31.40;;;;;;5011003;28;45096;-60
2022/03/12 13:29:29;;;;;;;5.53;3.72;;;16.30;31.60;;;;;;5000622;28;45559;-60
2022/03/12 13:31:55;;;;;;;4.22;3.25;;;16.40;31.60;;;;;;5005693;28;44848;-60
2022/03/12 13:34:20;;;;;;;6.57;3.92;;;16.30;31.70;;;;;;5014054;28;45198;-59
2022/03/12 13:36:48;;;;;;;6.15;3.53;;;16.40;31.50;;;;;;5003501;28;45266;-60
2022/03/12 13:39:15;;;;;;;6.97;3.50;;;16.30;31.40;;;;;;5008191;28;45286;-61
2022/03/12 13:41:42;;;;;;;6.22;3.90;;;16.30;32.10;;;;;;4992491;28;45296;-60
2022/03/12 13:44:07;;;;;;;7.03;3.75;;;16.20;32.60;;;;;;5004884;28;45914;-60
2022/03/12 13:46:33;;;;;;;9.80;3.85;;;16.20;33.00;;;;;;5013065;28;45450;-62
2022/03/12 13:49:10;;;;;;;8.80;3.60;;;16.20;33.30;;;;;;5005426;28;45791;-61
2022/03/12 13:51:46;;;;;;;6.28;3.78;;;16.10;33.30;;;;;;4999782;28;45147;-60
2022/03/12 13:54:16;;;;;;;8.10;3.30;;;16.10;33.60;;;;;;4994535;28;48137;-60
2022/03/12 13:56:43;;;;;;;6.03;3.63;;;16.10;34.00;;;;;;4976534;28;45658;-62
2022/03/12 13:59:20;;;;;;;7.82;3.83;;;16.10;34.20;;;;;;5009931;28;45515;-59
2022/03/12 14:01:47;;;;;;;4.57;2.97;;;16.10;34.40;;;;;;5007401;28;45669;-59
2022/03/12 14:04:17;;;;;;;5.60;3.40;;;16.10;34.70;;;;;;5027818;28;45468;-56
2022/03/12 14:06:44;;;;;;;7.18;3.40;;;16.10;34.80;;;;;;5019149;28;45265;-57
2022/03/12 14:09:11;;;;;;;8.32;3.42;;;16.10;35.00;;;;;;5008477;28;46406;-58
2022/03/12 14:11:43;;;;;;;4.93;3.13;;;16.00;35.20;;;;;;5007591;28;45471;-57
2022/03/12 14:14:12;;;;;;;7.47;3.47;;;16.00;35.20;;;;;;4999276;28;46882;-60
2022/03/12 14:16:53;;;;;;;6.28;3.33;;;16.00;35.40;;;;;;4979496;28;45584;-61
2022/03/12 14:19:21;;;;;;;6.43;3.88;;;16.00;35.50;;;;;;5007582;28;44769;-57
2022/03/12 14:21:48;;;;;;;11.27;3.63;;;16.00;35.80;;;;;;5021969;28;45187;-59
2022/03/12 14:24:15;;;;;;;6.88;3.53;;;16.00;35.90;;;;;;5019849;28;47145;-60
2022/03/12 14:26:53;;;;;;;9.07;3.80;;;15.90;36.10;;;;;;5007855;28;45302;-59
2022/03/12 14:29:27;;;;;;;6.30;3.35;;;15.90;36.10;;;;;;5016846;28;45609;-61
2022/03/12 14:31:55;;;;;;;5.57;3.85;;;16.00;36.30;;;;;;4991492;28;45446;-59
2022/03/12 14:34:22;;;;;;;5.20;3.45;;;15.90;36.40;;;;;;4998654;28;47295;-60
2022/03/12 14:36:48;;;;;;;4.80;3.33;;;15.90;36.50;;;;;;4979523;28;45878;-60
2022/03/12 14:39:14;;;;;;;4.65;2.95;;;15.90;36.60;;;;;;5009508;28;45672;-59
2022/03/12 14:41:44;;;;;;;5.00;3.00;;;15.90;36.80;;;;;;5006265;28;45393;-60
2022/03/12 14:44:12;;;;;;;4.78;3.33;;;15.90;36.90;;;;;;5007490;28;46690;-58
2022/03/12 14:46:49;;;;;;;6.55;3.25;;;15.90;37.00;;;;;;5008039;28;45722;-58
2022/03/12 14:49:19;;;;;;;5.25;3.20;;;16.00;37.10;;;;;;5005051;28;45637;-60
2022/03/12 14:52:09;;;;;;;5.75;3.30;;;15.90;37.20;;;;;;4997801;28;45273;-61
2022/03/12 14:54:39;;;;;;;3.88;2.90;;;15.90;37.30;;;;;;4998261;28;46419;-59
2022/03/12 14:57:07;;;;;;;3.97;2.78;;;15.90;37.50;;;;;;5002677;28;45281;-58
2022/03/12 14:59:34;;;;;;;3.75;2.80;;;15.90;37.50;;;;;;5005824;28;45285;-60
2022/03/12 15:02:09;;;;;;;5.53;3.30;;;15.90;37.60;;;;;;4986732;28;45462;-59
2022/03/12 15:04:45;;;;;;;5.68;3.17;;;15.90;37.60;;;;;;5008067;28;45809;-58
2022/03/12 15:07:33;;;;;;;5.53;3.53;;;15.90;37.70;;;;;;5005824;28;45572;-60
2022/03/12 15:10:00;;;;;;;6.30;3.08;;;15.90;38.50;;;;;;5003513;28;45280;-60
2022/03/12 15:12:40;;;;;;;5.03;3.00;;;15.90;38.00;;;;;;5010417;28;45080;-60
2022/03/12 15:15:24;;;;;;;4.60;3.03;;;15.90;38.00;;;;;;5010609;28;46061;-58
2022/03/12 15:17:56;;;;;;;5.43;2.78;;;15.90;38.10;;;;;;5010816;28;44973;-58
2022/03/12 15:20:29;;;;;;;4.85;2.88;;;15.80;38.30;;;;;;5007338;28;45206;-54
2022/03/12 15:23:03;;;;;;;4.45;2.53;;;15.90;38.40;;;;;;5007283;28;45335;-60
2022/03/12 15:25:35;;;;;;;6.75;2.95;;;15.80;38.40;;;;;;5009147;28;46325;-59
2022/03/12 15:28:05;;;;;;;6.20;2.90;;;15.80;38.50;;;;;;5005854;28;45259;-56
2022/03/12 15:30:32;;;;;;;6.68;3.00;;;15.80;38.60;;;;;;5006678;28;45461;-57
2022/03/12 15:33:00;;;;;;;4.05;2.90;;;15.80;38.60;;;;;;5007189;28;46328;-60
2022/03/12 15:35:42;;;;;;;4.43;2.97;;;15.80;38.70;;;;;;5009030;28;45265;-58
2022/03/12 15:38:09;;;;;;;4.22;2.55;;;15.90;39.00;;;;;;5007156;28;45022;-61
2022/03/12 15:40:36;;;;;;;6.32;2.90;;;15.80;38.90;;;;;;5004311;28;45177;-58
2022/03/12 15:43:01;;;;;;;3.47;2.58;;;15.80;39.00;;;;;;5004333;28;45392;-60
2022/03/12 15:45:28;;;;;;;4.55;2.78;;;15.80;39.00;;;;;;5006782;28;46921;-59
2022/03/12 15:47:54;;;;;;;4.15;2.80;;;15.80;39.10;;;;;;5005122;28;44964;-60
2022/03/12 15:50:20;;;;;;;3.53;2.65;;;15.80;39.20;;;;;;5005484;28;44704;-60
2022/03/12 15:52:47;;;;;;;3.58;2.58;;;15.80;39.20;;;;;;4999099;28;44984;-58
2022/03/12 15:55:14;;;;;;;4.47;2.60;;;15.80;39.40;;;;;;5001173;28;46010;-58
2022/03/12 15:57:40;;;;;;;3.97;2.50;;;15.80;39.40;;;;;;4999981;28;45640;-58
2022/03/12 16:00:10;;;;;;;3.38;2.50;;;15.80;39.50;;;;;;5004979;28;45871;-60
2022/03/12 16:02:36;;;;;;;3.83;2.45;;;15.80;39.60;;;;;;5004149;28;45620;-61
2022/03/12 16:05:01;;;;;;;4.70;2.65;;;15.70;39.60;;;;;;4996423;28;47221;-57
2022/03/12 16:07:28;;;;;;;4.90;2.15;;;15.70;39.70;;;;;;4995476;28;45460;-59
2022/03/12 16:09:56;;;;;;;4.05;2.60;;;15.80;39.80;;;;;;5007503;28;45074;-58
2022/03/12 16:12:22;;;;;;;3.60;2.58;;;15.80;39.80;;;;;;5004878;28;46283;-60
2022/03/12 16:14:48;;;;;;;3.95;2.72;;;15.70;39.80;;;;;;5002890;28;45898;-57
2022/03/12 16:17:15;;;;;;;4.05;2.80;;;15.80;39.90;;;;;;5006760;28;44675;-58
2022/03/12 16:19:42;;;;;;;3.92;2.40;;;15.70;39.90;;;;;;5005581;28;45297;-58
2022/03/12 16:22:08;;;;;;;3.92;2.45;;;15.70;39.90;;;;;;5005346;28;45054;-59
2022/03/12 16:24:36;;;;;;;3.70;2.58;;;15.70;40.00;;;;;;5007413;28;45868;-61
2022/03/12 16:27:03;;;;;;;4.55;2.50;;;15.70;40.00;;;;;;5004097;28;45114;-59
2022/03/12 16:29:29;;;;;;;6.90;2.47;;;15.70;40.10;;;;;;5007750;28;45288;-60
2022/03/12 16:31:54;;;;;;;4.03;2.83;;;15.70;40.10;;;;;;5005166;28;44985;-60
2022/03/12 16:34:20;;;;;;;3.35;1.98;;;15.70;40.20;;;;;;5008603;28;46027;-59
2022/03/12 16:36:45;;;;;;;2.67;2.10;;;15.70;40.20;;;;;;5001238;28;45259;-59
2022/03/12 16:39:12;;;;;;;4.50;2.20;;;15.70;40.30;;;;;;5004531;28;45585;-60
2022/03/12 16:41:38;;;;;;;3.08;2.28;;;15.70;40.40;;;;;;5005725;28;45443;-60
2022/03/12 16:44:05;;;;;;;2.67;2.03;;;15.70;40.40;;;;;;5001629;28;45854;-58
2022/03/12 16:46:34;;;;;;;3.38;2.17;;;15.70;40.50;;;;;;5005040;28;45295;-61
2022/03/12 16:49:04;;;;;;;2.90;2.28;;;15.70;40.60;;;;;;5001756;28;45671;-60
2022/03/12 16:51:30;;;;;;;3.33;2.13;;;15.60;40.60;;;;;;5002700;28;45633;-59
2022/03/12 16:53:59;;;;;;;4.53;2.38;;;15.60;40.60;;;;;;5003262;28;46969;-60